Sparta, WI (54656)

5:32 AM CST on January 22, 2017 (GMT -0600)
Sparta-Fort McCoy | | Change Station
Active Advisory: Dense Fog Advisory

Elev 837 ft 43.96 °N, 90.74 °W | Updated 17 minutes ago

Fog
Fog
35 °F
Feels Like 35 °F
N
0
Wind Variable Wind from North

Today
High -- | Low -- °F
--% Chance of Precip.
Yesterday
High -- | Low -- °F
Precip. -- in
Pressure 29.59 in
Visibility 0.2 miles
Clouds Overcast 200 ft
Dew Point 35 °F
Humidity 100%
Rainfall 0.00 in
Snow Depth Not available.
7:29 AM 5:00 PM
Waning Crescent, 27% visible
METAR KCMY 221115Z AUTO 00000KT 1/4SM FG OVC002 02/02 A2959 RMK AO2 T00170017
Pressure 29.59 in
Visibility 0.2 miles
Clouds Overcast 200 ft
Dew Point 35 °F
Humidity 100%
Rainfall 0.00 in
Snow Depth Not available.
7:29 AM 5:00 PM
Waning Crescent, 27% visible
METAR KCMY 221115Z AUTO 00000KT 1/4SM FG OVC002 02/02 A2959 RMK AO2 T00170017

Get Your Daily Forecast Email!

Thanks for signing up!

Be on the lookout for a verification email in your inbox.

You'll start receiving the daily forecast at 8 AM.

×

10-Day Weather Forecast

Almanac

Astronomy

Jan. 22, 2017 Rise Set
Actual Time
Civil Twilight
Nautical Twilight
Astronomical Twilight
Moon
Length of Visible Light
Length of Day
Tomorrow will be .
, % of the Moon is Illuminated

Today's Extremes

State Highs State Lows

Community

WunderPhotos

Upload Photos

1,962,540 photos uploaded!

WunderBlog® & News

Nearby

Air Quality

  Air Quality AQ Index Pollutant
Not available.

Snow Depth

Station Depth Elevation

Earthquake Activity

City Distance Mag. Time & Date
Minimum magnitude displayed is 2.5.

Coastal Water Temperatures

Place Temperature

Stations

Nearby Weather Stations

Station Location Temp. Windchill Dew Point Humidity Wind Precip. Elev Updated Type
                   

Watches & Warnings

Dense Fog Advisory
Issued: 4:40 AM CST Jan. 22, 2017 – National Weather Service

... Dense fog advisory remains in effect until noon CST today...

* periods of dense fog will continue through this morning... with
visibility reduced to 1/4 mile or less at times.

* For locations where fog has temporarily lifted early this
morning... look for redevelopment through daybreak.

* Impacts... significantly reduced visibility at times impacting
travel.

Precautionary/preparedness actions...

A dense fog advisory means visibilities will frequently be
reduced to less than one quarter mile. If driving... slow down...
use low beam headlights... and leave plenty of distance ahead of
you. Be especially careful at night when darkness combines with
the fog to make driving hazardous.


Rrs